Portada
METAR-TAF:

METAR-TAF

Aeropuertos :

Aeropuerto Internacional de Kuwait

Ciudad de Kuwait, Kuwait

latitud: 29-13N, longitud: 047-59E, altitud: 55 m

Observación

El informe se hizo hace 45 minutos, a las 23:00 UTC
Viento 7 kt del sur
Temperatura 11°C
Humedad 66%
Presión 1018 hPa
Visibilidad 10 km o más
sin nubes por debajo de 1500 m y sin presencia de cumulonimbus.

METAR: OKBK 242300Z 19007KT CAVOK 11/05 Q1018 NOSIG

Hora: 02:45 (23:45 UTC)

Pronóstico

El informe se hizo hace 1 hora y 0 minutos, a las 22:45 UTC
Pronóstico válido del 25 a las 00 UTC al 26 a las 06 UTC
Viento 12 kt del sur-sureste
Visibilidad: 7000 m
Evolucionando progresivamente
del 25 a las 05 UTC al 25 a las 07 UTC
Viento 10 kt del norte-noroeste con ráfagas de 20 kt

TAF: OKBK 242245Z 2500/2606 15012KT 7000 NSC BECMG 2505/2507 34010G20KT

Observaciones y pronósticos meteorológicos de más de 4000 aeropuertos (mensajes METAR y TAF).

Los puntos amarillos y rojos representan las estaciones disponibles.

Ponga el ratón en el punto deseado para ver el nombre de la estación.

Haga clic para ver las observaciones y los pronósticos meteorológicos.

Para cambiar el mapa : haga clic en los botones verdes con una cruz de color negro para hacer un zoom, en el botón verde con un guión para alejar o en las flechas verdes para mapas adyacentes.


METAR-TAF: